createdAt,value
2018-04-18T00:00:20.903Z,99549.95
2018-04-18T00:02:48.650Z,99553.98
2018-04-18T00:05:16.107Z,99555.81
2018-04-18T00:07:43.944Z,99560.67
2018-04-18T00:10:11.428Z,99552.78
2018-04-18T00:12:38.911Z,99550.64
2018-04-18T00:15:06.417Z,99551.54
2018-04-18T00:17:33.934Z,99550.70
2018-04-18T00:20:01.434Z,99552.17
2018-04-18T00:22:28.921Z,99556.19
2018-04-18T00:24:56.407Z,99556.69
2018-04-18T00:27:23.901Z,99560.66
2018-04-18T00:29:51.395Z,99560.27
2018-04-18T00:32:18.873Z,99561.66
2018-04-18T00:34:46.341Z,99560.80
2018-04-18T00:37:13.844Z,99561.80
2018-04-18T00:39:41.394Z,99560.06
2018-04-18T00:42:08.966Z,99558.34
2018-04-18T00:44:36.467Z,99557.91
2018-04-18T00:47:03.949Z,99569.89
2018-04-18T00:49:31.459Z,99564.20
2018-04-18T00:51:58.946Z,99571.39
2018-04-18T00:54:26.432Z,99575.84
2018-04-18T00:56:53.956Z,99579.80
2018-04-18T00:59:21.494Z,99574.14
2018-04-18T01:01:48.991Z,99575.07
2018-04-18T01:04:16.465Z,99573.28
2018-04-18T01:06:43.961Z,99577.30
2018-04-18T01:09:11.645Z,99570.67
2018-04-18T01:11:39.225Z,99568.90
2018-04-18T01:14:06.900Z,99574.20
2018-04-18T01:16:34.471Z,99579.97
2018-04-18T01:19:02.161Z,99576.45
2018-04-18T01:21:29.737Z,99582.21
2018-04-18T01:23:57.292Z,99582.64
2018-04-18T01:26:24.830Z,99589.25
2018-04-18T01:28:52.364Z,99588.40
2018-04-18T01:31:19.875Z,99591.48
2018-04-18T01:33:47.455Z,99593.33
2018-04-18T01:36:14.942Z,99591.13
2018-04-18T01:38:42.426Z,99595.99
2018-04-18T01:41:09.970Z,99599.97
2018-04-18T01:43:37.516Z,99598.66
2018-04-18T01:46:05.047Z,99600.91
2018-04-18T01:48:32.634Z,99599.63
2018-04-18T01:51:00.137Z,99607.13
2018-04-18T01:53:27.727Z,99612.00
2018-04-18T01:55:55.208Z,99608.92
2018-04-18T01:58:22.720Z,99606.70
2018-04-18T02:00:50.208Z,99605.41
2018-04-18T02:03:17.758Z,99607.18
2018-04-18T02:05:45.241Z,99614.22
2018-04-18T02:08:12.719Z,99604.55
2018-04-18T02:10:40.221Z,99606.75
2018-04-18T02:13:07.828Z,99609.42
2018-04-18T02:15:35.323Z,99607.25
2018-04-18T02:18:02.801Z,99612.97
2018-04-18T02:20:30.293Z,99612.98
2018-04-18T02:22:57.810Z,99609.49
2018-04-18T02:25:25.332Z,99612.55
2018-04-18T02:27:53.012Z,99615.66
2018-04-18T02:30:20.511Z,99616.09
2018-04-18T02:32:48.036Z,99617.89
2018-04-18T02:35:15.516Z,99625.38
2018-04-18T02:37:43.039Z,99614.39
2018-04-18T02:40:10.553Z,99624.09
2018-04-18T02:42:38.056Z,99630.28
2018-04-18T02:45:05.592Z,99620.62
2018-04-18T02:47:33.085Z,99623.27
2018-04-18T02:50:00.675Z,99628.58
2018-04-18T02:52:28.183Z,99632.92
2018-04-18T02:54:55.681Z,99631.61
2018-04-18T02:57:23.197Z,99632.06
2018-04-18T02:59:50.655Z,99640.83
2018-04-18T03:02:18.140Z,99632.50
2018-04-18T03:04:45.631Z,99633.84
2018-04-18T03:07:13.129Z,99632.11
2018-04-18T03:09:40.616Z,99638.31
2018-04-18T03:12:08.126Z,99640.50
2018-04-18T03:14:35.663Z,99642.72
2018-04-18T03:17:03.125Z,99644.05
2018-04-18T03:19:30.582Z,99642.73
2018-04-18T03:21:58.086Z,99638.34
2018-04-18T03:24:25.551Z,99635.69
2018-04-18T03:26:53.041Z,99644.48
2018-04-18T03:29:20.524Z,99641.86
2018-04-18T03:31:48.000Z,99644.52
2018-04-18T03:34:15.628Z,99644.08
2018-04-18T03:36:43.215Z,99640.56
2018-04-18T03:39:10.699Z,99647.16
2018-04-18T03:41:38.181Z,99644.09
2018-04-18T03:44:05.667Z,99651.13
2018-04-18T03:46:33.179Z,99646.73
2018-04-18T03:49:00.783Z,99648.47
2018-04-18T03:51:28.269Z,99648.50
2018-04-18T03:53:56.491Z,99646.71
2018-04-18T03:56:23.987Z,99649.34
2018-04-18T03:58:51.505Z,99651.98
2018-04-18T04:01:18.980Z,99647.62
2018-04-18T04:03:46.609Z,99658.16
2018-04-18T04:06:14.098Z,99658.59
2018-04-18T04:08:41.574Z,99658.59
2018-04-18T04:11:09.081Z,99651.12
2018-04-18T04:13:36.973Z,99659.04
2018-04-18T04:16:04.461Z,99660.79
2018-04-18T04:18:44.015Z,99662.55
2018-04-18T04:21:23.370Z,99665.18
2018-04-18T04:24:02.725Z,99669.59
2018-04-18T04:26:30.230Z,99667.82
2018-04-18T04:28:57.786Z,99661.22
2018-04-18T04:31:25.272Z,99666.94
2018-04-18T04:33:52.764Z,99668.26
2018-04-18T04:36:20.257Z,99671.77
2018-04-18T04:38:47.798Z,99674.39
2018-04-18T04:41:15.336Z,99673.52
2018-04-18T04:43:42.808Z,99673.52
2018-04-18T04:46:10.481Z,99676.56
2018-04-18T04:48:38.006Z,99682.72
2018-04-18T04:51:05.504Z,99679.66
2018-04-18T04:53:32.995Z,99681.86
2018-04-18T04:56:00.485Z,99683.16
2018-04-18T04:58:27.996Z,99688.89
2018-04-18T05:00:55.479Z,99692.84
2018-04-18T05:03:23.076Z,99694.16
2018-04-18T05:05:50.580Z,99691.94
2018-04-18T05:08:18.321Z,99701.14
2018-04-18T05:10:45.863Z,99703.75
2018-04-18T05:13:13.356Z,99698.02
2018-04-18T05:15:40.875Z,99703.31
2018-04-18T05:18:08.347Z,99702.41
2018-04-18T05:20:35.835Z,99704.13
2018-04-18T05:23:03.448Z,99702.81
2018-04-18T05:25:30.993Z,99709.43
2018-04-18T05:27:58.504Z,99716.46
2018-04-18T05:30:26.343Z,99711.61
2018-04-18T05:32:53.927Z,99717.69
2018-04-18T05:35:21.409Z,99722.45
2018-04-18T05:37:48.926Z,99725.95
2018-04-18T05:40:16.426Z,99722.38
2018-04-18T05:42:43.933Z,99723.66
2018-04-18T05:45:11.493Z,99725.36
2018-04-18T05:47:38.986Z,99728.02
2018-04-18T05:50:06.775Z,99724.42
2018-04-18T05:52:34.294Z,99731.28
2018-04-18T05:55:01.770Z,99735.38
2018-04-18T05:57:29.284Z,99732.02
2018-04-18T05:59:56.809Z,99733.27
2018-04-18T06:02:24.293Z,99731.48
2018-04-18T06:04:51.781Z,99737.57
2018-04-18T06:07:19.352Z,99737.10
2018-04-18T06:09:47.055Z,99741.41
2018-04-18T06:12:14.583Z,99740.91
2018-04-18T06:14:42.212Z,99742.20
2018-04-18T06:17:09.945Z,99740.80
2018-04-18T06:19:41.477Z,99740.28
2018-04-18T06:22:08.981Z,99734.97
2018-04-18T06:24:36.552Z,99731.24
2018-04-18T06:27:04.059Z,99735.88
2018-04-18T06:29:31.534Z,99733.02
2018-04-18T06:31:59.025Z,99727.17
2018-04-18T06:34:26.611Z,99733.58
2018-04-18T06:36:54.134Z,99734.31
2018-04-18T06:39:21.991Z,99739.69
2018-04-18T06:41:49.679Z,99737.39
2018-04-18T06:44:17.224Z,99739.55
2018-04-18T06:46:44.707Z,99733.22
2018-04-18T06:49:12.270Z,99737.95
2018-04-18T06:51:39.784Z,99738.28
2018-04-18T06:54:07.262Z,99744.50
2018-04-18T06:56:34.783Z,99741.05
2018-04-18T06:59:02.278Z,99742.34
2018-04-18T07:01:29.773Z,99742.58
2018-04-18T07:03:57.263Z,99743.25
2018-04-18T07:06:24.758Z,99736.01
2018-04-18T07:08:52.430Z,99738.70
2018-04-18T07:11:19.907Z,99744.25
2018-04-18T07:13:47.388Z,99737.88
2018-04-18T07:16:14.871Z,99740.81
2018-04-18T07:18:42.419Z,99739.77
2018-04-18T07:21:09.896Z,99741.58
2018-04-18T07:23:37.449Z,99741.48
2018-04-18T07:26:04.959Z,99732.53
2018-04-18T07:28:32.455Z,99736.22
2018-04-18T07:30:59.946Z,99741.66
2018-04-18T07:33:27.459Z,99744.76
2018-04-18T07:35:54.952Z,99750.27
2018-04-18T07:38:22.457Z,99753.20
2018-04-18T07:40:49.954Z,99748.90
2018-04-18T07:43:17.857Z,99749.23
2018-04-18T07:45:45.343Z,99754.39
2018-04-18T07:48:12.846Z,99750.99
2018-04-18T07:50:40.329Z,99748.06
2018-04-18T07:53:07.834Z,99753.19
2018-04-18T07:55:35.341Z,99757.32
2018-04-18T07:58:02.831Z,99753.61
2018-04-18T08:00:30.348Z,99748.58
2018-04-18T08:02:57.824Z,99746.25
2018-04-18T08:05:26.544Z,99744.84
2018-04-18T08:07:54.171Z,99744.28
2018-04-18T08:10:21.657Z,99748.69
2018-04-18T08:12:49.206Z,99745.29
2018-04-18T08:15:17.375Z,99748.42
2018-04-18T08:17:44.852Z,99751.27
2018-04-18T08:20:12.385Z,99754.16
2018-04-18T08:22:39.863Z,99753.22
2018-04-18T08:25:07.527Z,99751.88
2018-04-18T08:27:35.052Z,99756.78
2018-04-18T08:30:02.513Z,99754.16
2018-04-18T08:32:29.995Z,99742.20
2018-04-18T08:34:57.502Z,99749.27
2018-04-18T08:37:25.000Z,99744.91
2018-04-18T08:39:52.670Z,99751.23
2018-04-18T08:42:20.157Z,99747.75
2018-04-18T08:44:47.656Z,99748.08
2018-04-18T08:47:15.643Z,99744.77
2018-04-18T08:49:43.186Z,99748.70
2018-04-18T08:52:10.661Z,99741.06
2018-04-18T08:54:38.144Z,99741.58
2018-04-18T08:57:05.631Z,99740.85
2018-04-18T08:59:33.119Z,99742.70
2018-04-18T09:02:00.602Z,99740.36
2018-04-18T09:04:28.067Z,99744.38
2018-04-18T09:06:55.574Z,99742.63
2018-04-18T09:09:23.129Z,99740.98
2018-04-18T09:11:50.608Z,99735.16
2018-04-18T09:14:18.146Z,99734.07
2018-04-18T09:16:45.629Z,99731.19
2018-04-18T09:19:13.084Z,99734.94
2018-04-18T09:21:40.574Z,99734.27
2018-04-18T09:24:08.059Z,99734.05
2018-04-18T09:26:35.531Z,99734.35
2018-04-18T09:29:03.004Z,99736.05
2018-04-18T09:31:30.509Z,99737.46
2018-04-18T09:33:58.001Z,99734.54
2018-04-18T09:36:25.548Z,99729.30
2018-04-18T09:38:53.039Z,99731.94
2018-04-18T09:41:20.595Z,99729.45
2018-04-18T09:43:48.098Z,99738.38
2018-04-18T09:46:16.335Z,99732.31
2018-04-18T09:48:43.781Z,99728.05
2018-04-18T09:51:11.245Z,99727.88
2018-04-18T09:53:38.821Z,99738.98
2018-04-18T09:56:06.315Z,99740.78
2018-04-18T09:58:33.828Z,99732.45
2018-04-18T10:01:01.480Z,99732.47
2018-04-18T10:03:28.961Z,99730.47
2018-04-18T10:05:56.456Z,99729.38
2018-04-18T10:08:23.931Z,99731.05
2018-04-18T10:10:51.652Z,99726.64
2018-04-18T10:13:19.140Z,99733.31
2018-04-18T10:15:46.780Z,99719.90
2018-04-18T10:18:14.251Z,99722.89
2018-04-18T10:20:41.739Z,99720.42
2018-04-18T10:23:09.208Z,99719.14
2018-04-18T10:25:36.700Z,99711.97
2018-04-18T10:28:04.180Z,99717.71
2018-04-18T10:30:31.692Z,99716.72
2018-04-18T10:32:59.195Z,99711.81
2018-04-18T10:35:26.682Z,99716.58
2018-04-18T10:37:54.564Z,99711.19
2018-04-18T10:40:22.053Z,99709.48
2018-04-18T10:42:49.532Z,99703.64
2018-04-18T10:45:17.605Z,99701.36
2018-04-18T10:47:45.099Z,99702.44
2018-04-18T10:50:12.575Z,99702.95
2018-04-18T10:52:40.055Z,99696.16
2018-04-18T10:55:07.749Z,99696.94
2018-04-18T10:57:35.439Z,99695.92
2018-04-18T11:00:02.978Z,99692.22
2018-04-18T11:02:30.476Z,99682.17
2018-04-18T11:04:57.995Z,99694.09
2018-04-18T11:07:25.481Z,99688.16
2018-04-18T11:09:52.985Z,99683.80
2018-04-18T11:12:20.488Z,99684.72
2018-04-18T11:14:48.017Z,99681.09
2018-04-18T11:17:15.516Z,99675.22
2018-04-18T11:19:43.038Z,99681.03
2018-04-18T11:22:10.954Z,99674.88
2018-04-18T11:24:38.500Z,99677.59
2018-04-18T11:27:06.040Z,99673.50
2018-04-18T11:29:33.549Z,99675.11
2018-04-18T11:32:01.039Z,99672.45
2018-04-18T11:34:28.507Z,99674.25
2018-04-18T11:36:56.060Z,99673.97
2018-04-18T11:39:23.529Z,99662.91
2018-04-18T11:41:51.047Z,99663.28
2018-04-18T11:44:18.588Z,99669.64
2018-04-18T11:46:46.335Z,99662.70
2018-04-18T11:49:13.878Z,99661.69
2018-04-18T11:51:41.391Z,99655.47
2018-04-18T11:54:08.867Z,99662.48
2018-04-18T11:56:36.361Z,99652.33
2018-04-18T11:59:03.852Z,99655.84
2018-04-18T12:01:31.328Z,99654.35
2018-04-18T12:03:58.832Z,99653.05
2018-04-18T12:06:26.537Z,99650.69
2018-04-18T12:08:54.005Z,99640.88
2018-04-18T12:11:21.455Z,99641.80
2018-04-18T12:13:49.141Z,99645.05
2018-04-18T12:16:16.631Z,99636.87
2018-04-18T12:18:44.112Z,99646.84
2018-04-18T12:21:11.590Z,99640.38
2018-04-18T12:23:39.151Z,99640.88
2018-04-18T12:26:06.609Z,99628.45
2018-04-18T12:28:34.106Z,99630.48
2018-04-18T12:31:01.611Z,99634.77
2018-04-18T12:33:29.204Z,99628.97
2018-04-18T12:35:56.692Z,99633.98
2018-04-18T12:38:24.240Z,99627.63
2018-04-18T12:40:51.802Z,99631.37
2018-04-18T12:43:19.317Z,99627.52
2018-04-18T12:45:46.774Z,99635.83
2018-04-18T12:48:14.270Z,99629.00
2018-04-18T12:50:41.920Z,99626.69
2018-04-18T12:53:09.426Z,99623.40
2018-04-18T12:55:36.954Z,99623.16
2018-04-18T12:58:04.609Z,99616.44
2018-04-18T13:00:32.266Z,99611.85
2018-04-18T13:02:59.765Z,99611.72
2018-04-18T13:05:27.247Z,99610.66
2018-04-18T13:07:54.886Z,99607.05
2018-04-18T13:10:22.353Z,99602.50
2018-04-18T13:12:49.841Z,99600.41
2018-04-18T13:15:17.829Z,99601.71
2018-04-18T13:17:45.302Z,99599.34
2018-04-18T13:20:12.800Z,99591.19
2018-04-18T13:22:40.262Z,99593.52
2018-04-18T13:25:07.744Z,99596.27
2018-04-18T13:27:35.314Z,99583.17
2018-04-18T13:30:02.804Z,99589.27
2018-04-18T13:32:30.324Z,99585.41
2018-04-18T13:34:57.772Z,99581.80
2018-04-18T13:37:25.259Z,99589.03
2018-04-18T13:39:52.810Z,99585.94
2018-04-18T13:42:20.312Z,99584.68
2018-04-18T13:44:47.842Z,99580.46
2018-04-18T13:47:15.366Z,99578.23
2018-04-18T13:49:42.848Z,99574.73
2018-04-18T13:52:10.335Z,99576.38
2018-04-18T13:54:37.795Z,99571.03
2018-04-18T13:57:05.250Z,99576.34
2018-04-18T13:59:32.898Z,99571.06
2018-04-18T14:02:00.393Z,99569.50
2018-04-18T14:04:27.872Z,99571.45
2018-04-18T14:06:55.352Z,99567.94
2018-04-18T14:09:22.896Z,99564.11
2018-04-18T14:11:50.382Z,99559.16
2018-04-18T14:14:17.848Z,99561.47
2018-04-18T14:16:45.352Z,99552.71
2018-04-18T14:19:12.826Z,99556.36
2018-04-18T14:21:40.323Z,99554.76
2018-04-18T14:24:07.787Z,99557.79
2018-04-18T14:26:35.312Z,99556.77
2018-04-18T14:29:02.768Z,99554.06
2018-04-18T14:31:30.223Z,99540.39
2018-04-18T14:33:57.703Z,99549.14
2018-04-18T14:36:25.160Z,99544.84
2018-04-18T14:38:52.668Z,99551.59
2018-04-18T14:41:20.144Z,99544.80
2018-04-18T14:43:47.645Z,99540.29
2018-04-18T14:46:15.223Z,99536.61
2018-04-18T14:48:42.712Z,99540.33
2018-04-18T14:51:10.178Z,99534.82
2018-04-18T14:53:38.773Z,99528.86
2018-04-18T14:56:06.317Z,99529.40
2018-04-18T14:58:33.856Z,99532.55
2018-04-18T15:01:01.344Z,99526.30
2018-04-18T15:03:28.832Z,99526.34
2018-04-18T15:05:56.317Z,99523.39
2018-04-18T15:08:23.825Z,99529.41
2018-04-18T15:10:51.399Z,99531.30
2018-04-18T15:13:19.297Z,99526.16
2018-04-18T15:15:46.779Z,99526.22
2018-04-18T15:18:14.273Z,99521.98
2018-04-18T15:20:41.766Z,99518.80
2018-04-18T15:23:09.392Z,99517.62
2018-04-18T15:25:43.354Z,99521.52
2018-04-18T15:28:14.040Z,99516.12
2018-04-18T15:30:42.096Z,99506.02
2018-04-18T15:33:09.950Z,99506.88
2018-04-18T15:35:38.830Z,99500.18
2018-04-18T15:38:09.419Z,99503.53
2018-04-18T15:40:37.154Z,99504.26
2018-04-18T15:43:04.899Z,99506.72
2018-04-18T15:45:32.413Z,99507.22
2018-04-18T15:47:59.933Z,99506.61
2018-04-18T15:50:27.618Z,99503.95
2018-04-18T15:52:55.121Z,99500.95
2018-04-18T15:55:22.690Z,99495.27
2018-04-18T15:57:50.266Z,99499.73
2018-04-18T16:00:17.753Z,99495.80
2018-04-18T16:02:45.406Z,99488.05
2018-04-18T16:05:13.041Z,99491.77
2018-04-18T16:07:40.537Z,99493.27
2018-04-18T16:10:08.134Z,99500.89
2018-04-18T16:12:36.776Z,99492.08
2018-04-18T16:15:04.354Z,99496.58
2018-04-18T16:17:31.875Z,99493.04
2018-04-18T16:19:59.688Z,99496.03
2018-04-18T16:22:29.290Z,99491.84
2018-04-18T16:24:56.796Z,99490.62
2018-04-18T16:27:24.264Z,99496.67
2018-04-18T16:29:51.727Z,99502.24
2018-04-18T16:32:19.368Z,99495.69
2018-04-18T16:34:47.410Z,99495.81
2018-04-18T16:37:16.239Z,99496.08
2018-04-18T16:39:43.695Z,99489.50
2018-04-18T16:42:11.160Z,99485.33
2018-04-18T16:44:38.661Z,99486.97
2018-04-18T16:47:06.422Z,99488.69
2018-04-18T16:49:33.898Z,99479.39
2018-04-18T16:52:01.387Z,99485.83
2018-04-18T16:54:28.900Z,99486.97
2018-04-18T16:56:56.387Z,99488.03
2018-04-18T16:59:23.842Z,99488.30
2018-04-18T17:01:51.312Z,99484.92
2018-04-18T17:04:18.832Z,99487.11
2018-04-18T17:06:46.503Z,99487.15
2018-04-18T17:09:14.527Z,99489.87
2018-04-18T17:11:44.337Z,99492.18
2018-04-18T17:14:11.904Z,99494.16
2018-04-18T17:16:39.435Z,99491.38
2018-04-18T17:19:07.282Z,99498.14
2018-04-18T17:21:34.803Z,99498.90
2018-04-18T17:24:02.529Z,99492.44
2018-04-18T17:26:31.374Z,99487.16
2018-04-18T17:28:58.963Z,99494.72
2018-04-18T17:31:26.500Z,99495.08
2018-04-18T17:33:54.055Z,99497.44
2018-04-18T17:36:21.557Z,99494.48
2018-04-18T17:38:49.021Z,99495.91
2018-04-18T17:41:17.216Z,99495.82
2018-04-18T17:43:44.701Z,99497.02
2018-04-18T17:46:12.246Z,99505.09
2018-04-18T17:48:39.757Z,99497.06
2018-04-18T17:51:07.197Z,99500.66
2018-04-18T17:53:34.722Z,99506.20
2018-04-18T17:56:02.182Z,99501.71
2018-04-18T17:58:29.661Z,99509.33
2018-04-18T18:00:57.129Z,99510.82
2018-04-18T18:03:24.669Z,99503.05
2018-04-18T18:05:56.401Z,99506.95
2018-04-18T18:08:26.736Z,99509.74
2018-04-18T18:10:54.217Z,99510.75
2018-04-18T18:13:21.739Z,99510.98
2018-04-18T18:15:49.440Z,99510.53
2018-04-18T18:18:17.134Z,99507.73
2018-04-18T18:20:44.619Z,99514.69
2018-04-18T18:23:12.209Z,99510.48
2018-04-18T18:25:39.747Z,99509.59
2018-04-18T18:28:07.270Z,99512.77
2018-04-18T18:30:34.940Z,99513.90
2018-04-18T18:33:02.511Z,99513.07
2018-04-18T18:35:29.988Z,99522.42
2018-04-18T18:37:59.727Z,99517.03
2018-04-18T18:40:27.291Z,99514.83
2018-04-18T18:42:54.769Z,99516.89
2018-04-18T18:45:22.252Z,99515.59
2018-04-18T18:47:49.719Z,99519.47
2018-04-18T18:50:17.260Z,99522.67
2018-04-18T18:52:44.738Z,99528.69
2018-04-18T18:55:12.230Z,99531.69
2018-04-18T18:57:39.737Z,99533.00
2018-04-18T19:00:07.368Z,99536.94
2018-04-18T19:02:34.824Z,99538.34
2018-04-18T19:05:02.281Z,99538.72
2018-04-18T19:07:29.797Z,99543.64
2018-04-18T19:09:57.295Z,99540.89
2018-04-18T19:12:24.796Z,99547.92
2018-04-18T19:14:52.300Z,99550.70
2018-04-18T19:17:19.853Z,99552.24
2018-04-18T19:19:48.754Z,99556.63
2018-04-18T19:22:17.102Z,99559.15
2018-04-18T19:24:44.634Z,99550.55
2018-04-18T19:27:12.111Z,99557.66
2018-04-18T19:29:39.632Z,99556.78
2018-04-18T19:32:07.103Z,99554.98
2018-04-18T19:34:34.577Z,99554.53
2018-04-18T19:37:02.073Z,99557.64
2018-04-18T19:39:29.612Z,99557.60
2018-04-18T19:41:57.186Z,99550.72
2018-04-18T19:44:24.868Z,99552.91
2018-04-18T19:46:52.667Z,99550.14
2018-04-18T19:49:20.361Z,99561.70
2018-04-18T19:51:47.853Z,99555.06
2018-04-18T19:54:15.369Z,99557.16
2018-04-18T19:56:42.853Z,99560.55
2018-04-18T19:59:10.504Z,99559.16
2018-04-18T20:01:38.818Z,99559.03
2018-04-18T20:04:06.316Z,99563.02
2018-04-18T20:06:33.870Z,99553.63
2018-04-18T20:09:01.364Z,99556.77
2018-04-18T20:11:28.828Z,99555.61
2018-04-18T20:13:56.376Z,99557.28
2018-04-18T20:16:24.037Z,99560.85
2018-04-18T20:18:51.582Z,99552.10
2018-04-18T20:21:19.069Z,99550.38
2018-04-18T20:23:46.684Z,99552.52
2018-04-18T20:26:14.249Z,99550.20
2018-04-18T20:28:41.967Z,99547.83
2018-04-18T20:31:09.464Z,99550.50
2018-04-18T20:33:36.942Z,99549.95
2018-04-18T20:36:04.414Z,99549.83
2018-04-18T20:38:31.870Z,99544.62
2018-04-18T20:40:59.374Z,99551.73
2018-04-18T20:43:26.914Z,99552.45
2018-04-18T20:45:54.669Z,99549.74
2018-04-18T20:48:22.300Z,99551.34
2018-04-18T20:50:49.822Z,99547.01
2018-04-18T20:53:17.487Z,99543.91
2018-04-18T20:55:46.231Z,99548.05
2018-04-18T20:58:13.797Z,99543.73
2018-04-18T21:00:41.348Z,99550.98
2018-04-18T21:03:08.870Z,99545.20
2018-04-18T21:05:36.489Z,99545.80
2018-04-18T21:08:03.999Z,99543.45
2018-04-18T21:10:31.498Z,99535.88
2018-04-18T21:13:02.974Z,99539.81
2018-04-18T21:15:31.103Z,99535.62
2018-04-18T21:17:58.664Z,99533.03
2018-04-18T21:20:27.168Z,99535.56
2018-04-18T21:22:54.656Z,99534.23
2018-04-18T21:25:22.182Z,99536.34
2018-04-18T21:27:49.700Z,99532.75
2018-04-18T21:30:17.188Z,99529.00
2018-04-18T21:32:45.582Z,99535.59
2018-04-18T21:35:13.060Z,99535.78
2018-04-18T21:37:40.551Z,99540.74
2018-04-18T21:40:08.048Z,99542.64
2018-04-18T21:42:36.053Z,99542.41
2018-04-18T21:45:03.786Z,99538.22
2018-04-18T21:47:33.175Z,99540.08
2018-04-18T21:50:00.757Z,99538.02
2018-04-18T21:52:28.241Z,99541.45
2018-04-18T21:54:55.711Z,99538.09
2018-04-18T21:57:23.187Z,99538.01
2018-04-18T21:59:50.682Z,99539.69
2018-04-18T22:02:19.106Z,99536.75
2018-04-18T22:04:46.594Z,99536.58
2018-04-18T22:07:14.088Z,99539.47
2018-04-18T22:09:41.581Z,99538.81
2018-04-18T22:12:09.094Z,99539.15
2018-04-18T22:14:36.574Z,99535.78
2018-04-18T22:17:04.087Z,99535.42
2018-04-18T22:19:31.561Z,99535.84
2018-04-18T22:21:59.031Z,99536.78
2018-04-18T22:24:26.535Z,99535.18
2018-04-18T22:26:54.009Z,99536.75
2018-04-18T22:29:21.507Z,99536.25
2018-04-18T22:31:49.139Z,99539.31
2018-04-18T22:34:16.606Z,99536.87
2018-04-18T22:36:44.102Z,99536.99
2018-04-18T22:39:11.739Z,99535.49
2018-04-18T22:41:39.217Z,99533.81
2018-04-18T22:44:06.709Z,99538.16
2018-04-18T22:46:34.249Z,99533.69
2018-04-18T22:49:01.803Z,99540.72
2018-04-18T22:51:29.269Z,99536.98
2018-04-18T22:53:56.762Z,99539.65
2018-04-18T22:56:24.356Z,99545.38
2018-04-18T22:58:51.812Z,99548.36
2018-04-18T23:01:19.289Z,99543.37
2018-04-18T23:03:46.835Z,99531.91
2018-04-18T23:06:14.312Z,99534.84
2018-04-18T23:08:41.860Z,99530.92
2018-04-18T23:11:09.347Z,99536.91
2018-04-18T23:13:36.834Z,99531.44
2018-04-18T23:16:04.318Z,99535.44
2018-04-18T23:18:31.867Z,99536.02
2018-04-18T23:20:59.339Z,99531.30
2018-04-18T23:23:26.804Z,99533.81
2018-04-18T23:25:54.262Z,99525.62
2018-04-18T23:28:21.764Z,99531.00
2018-04-18T23:30:49.258Z,99527.44
2018-04-18T23:33:16.830Z,99526.28
2018-04-18T23:35:44.407Z,99527.58
2018-04-18T23:38:11.910Z,99525.52
2018-04-18T23:40:39.412Z,99524.62
2018-04-18T23:43:06.881Z,99522.95
2018-04-18T23:45:34.358Z,99522.78
2018-04-18T23:48:01.937Z,99516.03
2018-04-18T23:50:29.446Z,99514.83
2018-04-18T23:52:56.948Z,99520.99
2018-04-18T23:55:24.492Z,99520.05
2018-04-18T23:57:51.975Z,99518.06
